Fantasy — H3GS — position and weather

sailwx.info

Track history (hours):
 
Tides and Currents Weather Stations Pressure Air Temp Water Temp Dewpoint Dewpoint Depression Visibility Wind Speed Wind Dir Waves Ship Positions

Fantasy

Operator: Carnival Cruise Lines

Last reported at 2018-Dec-12 14:00 UTC. Time now 2018-Dec-12 14:15 UTC.
Position N 21°21' W 089°41'.

Type: Ship. MMSI: 353486000.

Date/timePositionNaut miles runAvg speedWind from/ knotsBaromVisibWave heightAir tempDewpointWater temp
2018-Dec-12 14:00N 21°21' W 089°41'0 0.3
2018-Dec-12 13:30N 21°21' W 089°41'3 6.6
2018-Dec-12 13:01N 21°24' W 089°41'5 9.4
2018-Dec-12 12:30N 21°28' W 089°42'510.1
2018-Dec-12 12:01N 21°33' W 089°43'611.0
2018-Dec-12 11:30N 21°39' W 089°45'13512.9
2018-Dec-12 01:00N 23°54' W 089°36'22117.0 070 / 151025.010.8 18.012.626.0
2018-Dec-11 12:00N 27°24' W 088°18'12420.6 020 / 121026.0 5.4 15.0 6.824.0
2018-Dec-11 06:00N 29°18' W 087°24'21 0.9 360 / 201025.010.8 12.0 5.521.6
2018-Dec-10 06:00N 29°36' W 087°36'18915.7 320 / 201017.010.8 14.0 5.622.4
2018-Dec-09 18:00N 26°30' W 087°00'23019.1 300 / 251016.010.8 22.018.925.0
2018-Dec-09 06:00N 22°42' W 086°30'12918.5 170 / 201016.010.8 28.023.728.1
2018-Dec-08 23:00N 20°35' W 086°57'611.7
2018-Dec-08 22:30N 20°30' W 086°59'1 1.5
2018-Dec-08 21:55N 20°29' W 086°59'0 0.0
2018-Dec-08 21:28N 20°29' W 086°59'0 0.0
2018-Dec-08 21:01N 20°29' W 086°59'0 0.0
2018-Dec-08 20:30N 20°29' W 086°59'0 0.0
2018-Dec-08 20:00N 20°29' W 086°59'0 0.0
2018-Dec-08 19:30N 20°29' W 086°59'0 0.0
2018-Dec-08 19:00N 20°29' W 086°59'0 0.0
2018-Dec-08 18:30N 20°29' W 086°59'0 0.0
2018-Dec-08 18:00N 20°29' W 086°59'0 0.0
2018-Dec-08 17:30N 20°29' W 086°59'0 0.0
2018-Dec-08 17:00N 20°29' W 086°59'0 0.0
2018-Dec-08 16:30N 20°29' W 086°59'0 0.0
2018-Dec-08 16:00N 20°29' W 086°59'0 0.0
2018-Dec-08 15:30N 20°29' W 086°59'0 0.0
2018-Dec-08 15:00N 20°29' W 086°59'0 0.0
2018-Dec-08 14:30N 20°29' W 086°59'0 0.0
2018-Dec-08 14:00N 20°29' W 086°59'0 0.3
2018-Dec-08 13:30N 20°29' W 086°59'3 5.9
2018-Dec-08 13:00N 20°32' W 086°59'9814.0
2018-Dec-08 06:00N 22°06' W 086°30'19916.6 100 / 271021.010.8 26.021.528.3
2018-Dec-07 18:00N 25°24' W 086°54'   080 / 281026.010.8 24.017.625.1
2018-Dec-05 06:00N 22°42' W 086°30'12920.7 350 / 91017.010.8 27.022.628.0
2018-Dec-04 23:47N 20°36' W 086°57'413.8
2018-Dec-04 23:30N 20°32' W 086°58'3 6.5
2018-Dec-04 23:00N 20°29' W 086°59'0 0.3
2018-Dec-04 22:30N 20°29' W 086°59'0 0.0
2018-Dec-04 22:00N 20°29' W 086°59'0 0.0
2018-Dec-04 21:29N 20°29' W 086°59'0 0.0
2018-Dec-04 20:59N 20°29' W 086°59'0 0.0
2018-Dec-04 20:29N 20°29' W 086°59'0 0.0
2018-Dec-04 19:56N 20°29' W 086°59'0 0.0
2018-Dec-04 19:28N 20°29' W 086°59'0 0.0
2018-Dec-04 18:58N 20°29' W 086°59'0 0.0
2018-Dec-04 18:28N 20°29' W 086°59'0 0.0
2018-Dec-04 17:58N 20°29' W 086°59'0 0.0
2018-Dec-04 17:30N 20°29' W 086°59'0 0.0
2018-Dec-04 17:00N 20°29' W 086°59'0 0.0
2018-Dec-04 16:30N 20°29' W 086°59'0 0.0
2018-Dec-04 16:00N 20°29' W 086°59'0 0.0
2018-Dec-04 15:30N 20°29' W 086°59'0 0.0
2018-Dec-04 15:00N 20°29' W 086°59'0 0.4
2018-Dec-04 14:30N 20°29' W 086°59'3 6.0
2018-Dec-04 14:00N 20°32' W 086°59'1918.4
2018-Dec-04 13:00N 20°42' W 086°42'13912.5 120 / 121014.010.8 27.024.128.0
2018-Dec-04 01:54N 21°47' W 088°54'718.0
2018-Dec-04 01:30N 21°44' W 089°01'917.9
2018-Dec-04 01:00N 21°42' W 089°10'917.8
2018-Dec-04 00:30N 21°39' W 089°19'917.9
2018-Dec-04 00:00N 21°35' W 089°28'9550.8
2018-Dec-04 00:00N 21°36' W 089°18'1836.7 050 / 151012.010.8 28.023.727.0
2018-Dec-03 23:30N 21°32' W 089°37'714.9
2018-Dec-03 23:00N 21°26' W 089°42'510.6
2018-Dec-03 22:31N 21°21' W 089°41'1 1.5
2018-Dec-03 21:59N 21°20' W 089°41'0 0.0
2018-Dec-03 21:29N 21°20' W 089°41'0 0.0
2018-Dec-03 20:59N 21°20' W 089°41'0 0.0
2018-Dec-03 20:29N 21°20' W 089°41'0 0.0
2018-Dec-03 19:58N 21°20' W 089°41'0 0.0
2018-Dec-03 19:28N 21°20' W 089°41'0 0.0
2018-Dec-03 18:58N 21°20' W 089°41'0 0.0
2018-Dec-03 18:30N 21°20' W 089°41'0 0.0
2018-Dec-03 18:01N 21°20' W 089°41'0 0.0
2018-Dec-03 17:31N 21°20' W 089°41'0 0.0
2018-Dec-03 17:00N 21°20' W 089°41'0 0.0
2018-Dec-03 16:30N 21°20' W 089°41'0 0.0
2018-Dec-03 16:01N 21°20' W 089°41'0 0.0
2018-Dec-03 15:31N 21°20' W 089°41'0 0.0
2018-Dec-03 15:00N 21°20' W 089°41'0 0.0
2018-Dec-03 14:30N 21°20' W 089°41'0 0.1
2018-Dec-03 14:00N 21°20' W 089°41'1 3.0
2018-Dec-03 13:30N 21°22' W 089°41'510.4
2018-Dec-03 13:00N 21°27' W 089°42'5 9.1
2018-Dec-03 12:30N 21°31' W 089°43'714.5
2018-Dec-03 12:00N 21°38' W 089°45'4223.4
2018-Dec-03 12:00N 21°36' W 089°42'1122.4 150 / 181010.010.8 26.023.127.0
2018-Dec-03 11:30N 21°45' W 089°49'16614.4
2018-Dec-03 00:00N 24°30' W 089°24'14616.3 140 / 151009.010.8 26.023.126.0
2018-Dec-02 15:00N 26°48' W 088°30'   190 / 251011.010.8 25.023.624.6
Track history (hours):
 
Tides and Currents Weather Stations Pressure Air Temp Water Temp Dewpoint Dewpoint Depression Visibility Wind Speed Wind Dir Waves Ship Positions

Fantasy

Operator: Carnival Cruise Lines

Last reported at 2018-Dec-12 14:00 UTC. Time now 2018-Dec-12 14:15 UTC.
Position N 21°21' W 089°41'.

Type: Ship. MMSI: 353486000.

Date/timePositionNaut miles runAvg speedWind from/ knotsBaromVisibWave heightAir tempDewpointWater temp
2018-Dec-12 14:00N 21°21' W 089°41'0 0.3
2018-Dec-12 13:30N 21°21' W 089°41'3 6.6
2018-Dec-12 13:01N 21°24' W 089°41'5 9.4
2018-Dec-12 12:30N 21°28' W 089°42'510.1
2018-Dec-12 12:01N 21°33' W 089°43'611.0
2018-Dec-12 11:30N 21°39' W 089°45'13512.9
2018-Dec-12 01:00N 23°54' W 089°36'22117.0 070 / 151025.010.8 18.012.626.0
2018-Dec-11 12:00N 27°24' W 088°18'12420.6 020 / 121026.0 5.4 15.0 6.824.0
2018-Dec-11 06:00N 29°18' W 087°24'21 0.9 360 / 201025.010.8 12.0 5.521.6
2018-Dec-10 06:00N 29°36' W 087°36'18915.7 320 / 201017.010.8 14.0 5.622.4
2018-Dec-09 18:00N 26°30' W 087°00'23019.1 300 / 251016.010.8 22.018.925.0
2018-Dec-09 06:00N 22°42' W 086°30'12918.5 170 / 201016.010.8 28.023.728.1
2018-Dec-08 23:00N 20°35' W 086°57'611.7
2018-Dec-08 22:30N 20°30' W 086°59'1 1.5
2018-Dec-08 21:55N 20°29' W 086°59'0 0.0
2018-Dec-08 21:28N 20°29' W 086°59'0 0.0
2018-Dec-08 21:01N 20°29' W 086°59'0 0.0
2018-Dec-08 20:30N 20°29' W 086°59'0 0.0
2018-Dec-08 20:00N 20°29' W 086°59'0 0.0
2018-Dec-08 19:30N 20°29' W 086°59'0 0.0
2018-Dec-08 19:00N 20°29' W 086°59'0 0.0
2018-Dec-08 18:30N 20°29' W 086°59'0 0.0
2018-Dec-08 18:00N 20°29' W 086°59'0 0.0
2018-Dec-08 17:30N 20°29' W 086°59'0 0.0
2018-Dec-08 17:00N 20°29' W 086°59'0 0.0
2018-Dec-08 16:30N 20°29' W 086°59'0 0.0
2018-Dec-08 16:00N 20°29' W 086°59'0 0.0
2018-Dec-08 15:30N 20°29' W 086°59'0 0.0
2018-Dec-08 15:00N 20°29' W 086°59'0 0.0
2018-Dec-08 14:30N 20°29' W 086°59'0 0.0
2018-Dec-08 14:00N 20°29' W 086°59'0 0.3
2018-Dec-08 13:30N 20°29' W 086°59'3 5.9
2018-Dec-08 13:00N 20°32' W 086°59'9814.0
2018-Dec-08 06:00N 22°06' W 086°30'19916.6 100 / 271021.010.8 26.021.528.3
2018-Dec-07 18:00N 25°24' W 086°54'   080 / 281026.010.8 24.017.625.1
2018-Dec-05 06:00N 22°42' W 086°30'12920.7 350 / 91017.010.8 27.022.628.0
2018-Dec-04 23:47N 20°36' W 086°57'413.8
2018-Dec-04 23:30N 20°32' W 086°58'3 6.5
2018-Dec-04 23:00N 20°29' W 086°59'0 0.3
2018-Dec-04 22:30N 20°29' W 086°59'0 0.0
2018-Dec-04 22:00N 20°29' W 086°59'0 0.0
2018-Dec-04 21:29N 20°29' W 086°59'0 0.0
2018-Dec-04 20:59N 20°29' W 086°59'0 0.0
2018-Dec-04 20:29N 20°29' W 086°59'0 0.0
2018-Dec-04 19:56N 20°29' W 086°59'0 0.0
2018-Dec-04 19:28N 20°29' W 086°59'0 0.0
2018-Dec-04 18:58N 20°29' W 086°59'0 0.0
2018-Dec-04 18:28N 20°29' W 086°59'0 0.0
2018-Dec-04 17:58N 20°29' W 086°59'0 0.0
2018-Dec-04 17:30N 20°29' W 086°59'0 0.0
2018-Dec-04 17:00N 20°29' W 086°59'0 0.0
2018-Dec-04 16:30N 20°29' W 086°59'0 0.0
2018-Dec-04 16:00N 20°29' W 086°59'0 0.0
2018-Dec-04 15:30N 20°29' W 086°59'0 0.0
2018-Dec-04 15:00N 20°29' W 086°59'0 0.4
2018-Dec-04 14:30N 20°29' W 086°59'3 6.0
2018-Dec-04 14:00N 20°32' W 086°59'1918.4
2018-Dec-04 13:00N 20°42' W 086°42'13912.5 120 / 121014.010.8 27.024.128.0
2018-Dec-04 01:54N 21°47' W 088°54'718.0
2018-Dec-04 01:30N 21°44' W 089°01'917.9
2018-Dec-04 01:00N 21°42' W 089°10'917.8
2018-Dec-04 00:30N 21°39' W 089°19'917.9
2018-Dec-04 00:00N 21°35' W 089°28'9550.8
2018-Dec-04 00:00N 21°36' W 089°18'1836.7 050 / 151012.010.8 28.023.727.0
2018-Dec-03 23:30N 21°32' W 089°37'714.9
2018-Dec-03 23:00N 21°26' W 089°42'510.6
2018-Dec-03 22:31N 21°21' W 089°41'1 1.5
2018-Dec-03 21:59N 21°20' W 089°41'0 0.0
2018-Dec-03 21:29N 21°20' W 089°41'0 0.0
2018-Dec-03 20:59N 21°20' W 089°41'0 0.0
2018-Dec-03 20:29N 21°20' W 089°41'0 0.0
2018-Dec-03 19:58N 21°20' W 089°41'0 0.0
2018-Dec-03 19:28N 21°20' W 089°41'0 0.0
2018-Dec-03 18:58N 21°20' W 089°41'0 0.0
2018-Dec-03 18:30N 21°20' W 089°41'0 0.0
2018-Dec-03 18:01N 21°20' W 089°41'0 0.0
2018-Dec-03 17:31N 21°20' W 089°41'0 0.0
2018-Dec-03 17:00N 21°20' W 089°41'0 0.0
2018-Dec-03 16:30N 21°20' W 089°41'0 0.0
2018-Dec-03 16:01N 21°20' W 089°41'0 0.0
2018-Dec-03 15:31N 21°20' W 089°41'0 0.0
2018-Dec-03 15:00N 21°20' W 089°41'0 0.0
2018-Dec-03 14:30N 21°20' W 089°41'0 0.1
2018-Dec-03 14:00N 21°20' W 089°41'1 3.0
2018-Dec-03 13:30N 21°22' W 089°41'510.4
2018-Dec-03 13:00N 21°27' W 089°42'5 9.1
2018-Dec-03 12:30N 21°31' W 089°43'714.5
2018-Dec-03 12:00N 21°38' W 089°45'4223.4
2018-Dec-03 12:00N 21°36' W 089°42'1122.4 150 / 181010.010.8 26.023.127.0
2018-Dec-03 11:30N 21°45' W 089°49'16614.4
2018-Dec-03 00:00N 24°30' W 089°24'14616.3 140 / 151009.010.8 26.023.126.0
2018-Dec-02 15:00N 26°48' W 088°30'   190 / 251011.010.8 25.023.624.6

Dump ship's entire track history